Hanna, Louisiana
Current Conditions -  °F | °C
As of 6:15 PM on Friday 24 Oct 2014 (Local Time) from KIER Reporting Station
Haze Haze  
Wind Chill: 70°   Ceiling: Unl
Heat Index: 70°   Visibility: 5mi
Dew Point: 59°   Wind: 0mph
Humidity: 67%   Direction: NA
Pressure: 30.11"   Gusts: NA
Location:  32.1001°N, 93.2912°W
Report Text: KIER 242315Z AUTO 00000KT 5SM HZ CLR 21/15 A3011 RMK AO2 T02120148
Loading
Personal Weather Stations






























Interactive Weather Map
Tropical Storm Tracking
New forecast layout! Learn more

10-Day Weather Forecast

Advertisements
Track Severe Weather on mobile